sensor_id;sensor_type;location;lat;lon;timestamp;temperature;humidity
9399;DHT22;4739;49.334;8.792;2022-11-20T00:01:20;3.90;99.90
9399;DHT22;4739;49.334;8.792;2022-11-20T00:03:46;3.80;99.90
9399;DHT22;4739;49.334;8.792;2022-11-20T00:06:17;3.80;99.90
9399;DHT22;4739;49.334;8.792;2022-11-20T00:08:43;3.80;99.90
9399;DHT22;4739;49.334;8.792;2022-11-20T00:11:11;3.80;99.90
9399;DHT22;4739;49.334;8.792;2022-11-20T00:13:37;3.80;99.90
9399;DHT22;4739;49.334;8.792;2022-11-20T00:16:04;3.80;99.90
9399;DHT22;4739;49.334;8.792;2022-11-20T00:18:30;3.90;99.90
9399;DHT22;4739;49.334;8.792;2022-11-20T00:21:10;3.90;99.90
9399;DHT22;4739;49.334;8.792;2022-11-20T00:23:36;3.90;99.90
9399;DHT22;4739;49.334;8.792;2022-11-20T00:26:06;3.90;99.90
9399;DHT22;4739;49.334;8.792;2022-11-20T00:28:33;3.80;99.90
9399;DHT22;4739;49.334;8.792;2022-11-20T00:31:07;3.80;99.90
9399;DHT22;4739;49.334;8.792;2022-11-20T00:33:33;3.80;99.90
9399;DHT22;4739;49.334;8.792;2022-11-20T00:36:04;3.80;99.90
9399;DHT22;4739;49.334;8.792;2022-11-20T00:38:30;3.80;99.90
9399;DHT22;4739;49.334;8.792;2022-11-20T00:40:57;3.90;99.90
9399;DHT22;4739;49.334;8.792;2022-11-20T00:43:24;3.90;99.90
9399;DHT22;4739;49.334;8.792;2022-11-20T00:45:50;4.00;99.90
9399;DHT22;4739;49.334;8.792;2022-11-20T00:48:15;4.00;99.90
9399;DHT22;4739;49.334;8.792;2022-11-20T00:50:41;4.00;99.90
9399;DHT22;4739;49.334;8.792;2022-11-20T00:53:07;4.00;99.90
9399;DHT22;4739;49.334;8.792;2022-11-20T00:55:32;4.00;99.90
9399;DHT22;4739;49.334;8.792;2022-11-20T00:57:58;3.90;99.90
9399;DHT22;4739;49.334;8.792;2022-11-20T01:00:23;3.80;99.90
9399;DHT22;4739;49.334;8.792;2022-11-20T01:02:49;3.80;99.90
9399;DHT22;4739;49.334;8.792;2022-11-20T01:05:15;3.90;99.90
9399;DHT22;4739;49.334;8.792;2022-11-20T01:07:40;3.90;99.90
9399;DHT22;4739;49.334;8.792;2022-11-20T01:10:06;3.90;99.90
9399;DHT22;4739;49.334;8.792;2022-11-20T01:12:32;3.90;99.90
9399;DHT22;4739;49.334;8.792;2022-11-20T01:14:57;3.80;99.90
9399;DHT22;4739;49.334;8.792;2022-11-20T01:17:23;3.80;99.90
9399;DHT22;4739;49.334;8.792;2022-11-20T01:19:49;3.80;99.90
9399;DHT22;4739;49.334;8.792;2022-11-20T01:22:16;3.80;99.90
9399;DHT22;4739;49.334;8.792;2022-11-20T01:24:41;3.80;99.90
9399;DHT22;4739;49.334;8.792;2022-11-20T01:27:07;3.90;99.90
9399;DHT22;4739;49.334;8.792;2022-11-20T01:29:32;3.90;99.90
9399;DHT22;4739;49.334;8.792;2022-11-20T01:31:58;3.90;99.90
9399;DHT22;4739;49.334;8.792;2022-11-20T01:34:24;4.00;99.90
9399;DHT22;4739;49.334;8.792;2022-11-20T01:36:51;4.00;99.90
9399;DHT22;4739;49.334;8.792;2022-11-20T01:39:19;3.90;99.90
9399;DHT22;4739;49.334;8.792;2022-11-20T01:41:46;4.00;99.90
9399;DHT22;4739;49.334;8.792;2022-11-20T01:44:53;4.00;99.90
9399;DHT22;4739;49.334;8.792;2022-11-20T01:47:32;4.00;99.90
9399;DHT22;4739;49.334;8.792;2022-11-20T01:50:23;4.10;99.90
9399;DHT22;4739;49.334;8.792;2022-11-20T01:55:20;4.00;99.90
9399;DHT22;4739;49.334;8.792;2022-11-20T01:57:48;4.00;99.90
9399;DHT22;4739;49.334;8.792;2022-11-20T02:00:16;4.00;99.90
9399;DHT22;4739;49.334;8.792;2022-11-20T02:02:47;4.00;99.90
9399;DHT22;4739;49.334;8.792;2022-11-20T02:05:32;3.90;99.90
9399;DHT22;4739;49.334;8.792;2022-11-20T02:08:00;4.00;99.90
9399;DHT22;4739;49.334;8.792;2022-11-20T02:10:26;3.80;99.90
9399;DHT22;4739;49.334;8.792;2022-11-20T02:12:52;3.80;99.90
9399;DHT22;4739;49.334;8.792;2022-11-20T02:15:36;3.80;99.90
9399;DHT22;4739;49.334;8.792;2022-11-20T02:18:02;3.90;99.90
9399;DHT22;4739;49.334;8.792;2022-11-20T02:20:28;4.00;99.90
9399;DHT22;4739;49.334;8.792;2022-11-20T02:23:03;4.10;99.90
9399;DHT22;4739;49.334;8.792;2022-11-20T02:25:31;4.10;99.90
9399;DHT22;4739;49.334;8.792;2022-11-20T02:27:58;4.10;99.90
9399;DHT22;4739;49.334;8.792;2022-11-20T02:30:24;4.10;99.90
9399;DHT22;4739;49.334;8.792;2022-11-20T02:32:49;4.10;99.90
9399;DHT22;4739;49.334;8.792;2022-11-20T02:37:44;4.10;99.90
9399;DHT22;4739;49.334;8.792;2022-11-20T02:40:11;4.20;99.90
9399;DHT22;4739;49.334;8.792;2022-11-20T02:42:37;4.10;99.90
9399;DHT22;4739;49.334;8.792;2022-11-20T02:45:04;4.00;99.90
9399;DHT22;4739;49.334;8.792;2022-11-20T02:47:30;4.10;99.90
9399;DHT22;4739;49.334;8.792;2022-11-20T02:49:55;4.10;99.90
9399;DHT22;4739;49.334;8.792;2022-11-20T02:52:21;3.90;99.90
9399;DHT22;4739;49.334;8.792;2022-11-20T02:54:47;3.90;99.90
9399;DHT22;4739;49.334;8.792;2022-11-20T02:57:12;4.00;99.90
9399;DHT22;4739;49.334;8.792;2022-11-20T02:59:38;4.10;99.90
9399;DHT22;4739;49.334;8.792;2022-11-20T03:02:03;4.00;99.90
9399;DHT22;4739;49.334;8.792;2022-11-20T03:04:30;4.10;99.90
9399;DHT22;4739;49.334;8.792;2022-11-20T03:06:55;4.10;99.90
9399;DHT22;4739;49.334;8.792;2022-11-20T03:09:21;4.10;99.90
9399;DHT22;4739;49.334;8.792;2022-11-20T03:11:47;4.10;99.90
9399;DHT22;4739;49.334;8.792;2022-11-20T03:14:13;4.10;99.90
9399;DHT22;4739;49.334;8.792;2022-11-20T03:16:38;4.10;99.90
9399;DHT22;4739;49.334;8.792;2022-11-20T03:19:04;4.10;99.90
9399;DHT22;4739;49.334;8.792;2022-11-20T03:21:29;4.20;99.90
9399;DHT22;4739;49.334;8.792;2022-11-20T03:23:55;4.20;99.90
9399;DHT22;4739;49.334;8.792;2022-11-20T03:26:24;4.20;99.90
9399;DHT22;4739;49.334;8.792;2022-11-20T03:28:54;4.30;99.90
9399;DHT22;4739;49.334;8.792;2022-11-20T03:31:23;4.20;99.90
9399;DHT22;4739;49.334;8.792;2022-11-20T03:33:49;4.30;99.90
9399;DHT22;4739;49.334;8.792;2022-11-20T03:36:17;4.30;99.90
9399;DHT22;4739;49.334;8.792;2022-11-20T03:38:43;4.30;99.90
9399;DHT22;4739;49.334;8.792;2022-11-20T03:41:14;4.30;99.90
9399;DHT22;4739;49.334;8.792;2022-11-20T03:43:40;4.30;99.90
9399;DHT22;4739;49.334;8.792;2022-11-20T03:46:06;4.30;99.90
9399;DHT22;4739;49.334;8.792;2022-11-20T03:48:32;4.40;99.90
9399;DHT22;4739;49.334;8.792;2022-11-20T03:53:38;4.30;99.90
9399;DHT22;4739;49.334;8.792;2022-11-20T03:56:04;4.30;99.90
9399;DHT22;4739;49.334;8.792;2022-11-20T03:58:30;4.30;99.90
9399;DHT22;4739;49.334;8.792;2022-11-20T04:00:56;4.20;99.90
9399;DHT22;4739;49.334;8.792;2022-11-20T04:03:21;4.10;99.90
9399;DHT22;4739;49.334;8.792;2022-11-20T04:05:47;4.10;99.90
9399;DHT22;4739;49.334;8.792;2022-11-20T04:08:13;4.30;99.90
9399;DHT22;4739;49.334;8.792;2022-11-20T04:10:38;4.30;99.90
9399;DHT22;4739;49.334;8.792;2022-11-20T04:13:04;4.30;99.90
9399;DHT22;4739;49.334;8.792;2022-11-20T04:15:29;4.30;99.90
9399;DHT22;4739;49.334;8.792;2022-11-20T04:17:55;4.30;99.90
9399;DHT22;4739;49.334;8.792;2022-11-20T04:20:21;4.20;99.90
9399;DHT22;4739;49.334;8.792;2022-11-20T04:22:46;4.20;99.90
9399;DHT22;4739;49.334;8.792;2022-11-20T04:25:12;4.30;99.90
9399;DHT22;4739;49.334;8.792;2022-11-20T04:27:37;4.40;99.90
9399;DHT22;4739;49.334;8.792;2022-11-20T04:30:03;4.30;99.90
9399;DHT22;4739;49.334;8.792;2022-11-20T04:32:29;4.40;99.90
9399;DHT22;4739;49.334;8.792;2022-11-20T04:34:54;4.50;99.90
9399;DHT22;4739;49.334;8.792;2022-11-20T04:37:20;4.50;99.90
9399;DHT22;4739;49.334;8.792;2022-11-20T04:39:45;4.50;99.90
9399;DHT22;4739;49.334;8.792;2022-11-20T04:42:11;4.50;99.90
9399;DHT22;4739;49.334;8.792;2022-11-20T04:44:55;4.50;99.90
9399;DHT22;4739;49.334;8.792;2022-11-20T04:47:21;4.50;99.90
9399;DHT22;4739;49.334;8.792;2022-11-20T04:49:47;4.50;99.90
9399;DHT22;4739;49.334;8.792;2022-11-20T04:52:12;4.50;99.90
9399;DHT22;4739;49.334;8.792;2022-11-20T04:54:38;4.60;99.90
9399;DHT22;4739;49.334;8.792;2022-11-20T04:57:04;4.60;99.90
9399;DHT22;4739;49.334;8.792;2022-11-20T04:59:30;4.70;99.90
9399;DHT22;4739;49.334;8.792;2022-11-20T05:01:55;4.80;99.90
9399;DHT22;4739;49.334;8.792;2022-11-20T05:04:21;4.90;99.90
9399;DHT22;4739;49.334;8.792;2022-11-20T05:06:46;4.90;99.90
9399;DHT22;4739;49.334;8.792;2022-11-20T05:09:13;5.00;99.90
9399;DHT22;4739;49.334;8.792;2022-11-20T05:11:38;5.00;99.90
9399;DHT22;4739;49.334;8.792;2022-11-20T05:14:04;5.20;99.90
9399;DHT22;4739;49.334;8.792;2022-11-20T05:16:29;5.30;99.90
9399;DHT22;4739;49.334;8.792;2022-11-20T05:18:55;5.40;99.90
9399;DHT22;4739;49.334;8.792;2022-11-20T05:21:22;5.50;99.90
9399;DHT22;4739;49.334;8.792;2022-11-20T05:23:48;5.50;99.90
9399;DHT22;4739;49.334;8.792;2022-11-20T05:26:21;5.60;99.90
9399;DHT22;4739;49.334;8.792;2022-11-20T05:28:48;5.80;99.90
9399;DHT22;4739;49.334;8.792;2022-11-20T05:31:16;5.80;99.90
9399;DHT22;4739;49.334;8.792;2022-11-20T05:33:43;5.80;99.90
9399;DHT22;4739;49.334;8.792;2022-11-20T05:36:11;5.90;99.90
9399;DHT22;4739;49.334;8.792;2022-11-20T05:38:37;5.90;99.90
9399;DHT22;4739;49.334;8.792;2022-11-20T05:41:11;5.90;99.90
9399;DHT22;4739;49.334;8.792;2022-11-20T05:43:39;5.90;99.90
9399;DHT22;4739;49.334;8.792;2022-11-20T05:46:07;5.90;99.90
9399;DHT22;4739;49.334;8.792;2022-11-20T05:48:33;6.00;99.90
9399;DHT22;4739;49.334;8.792;2022-11-20T05:51:01;6.00;99.90
9399;DHT22;4739;49.334;8.792;2022-11-20T05:53:26;6.00;99.90
9399;DHT22;4739;49.334;8.792;2022-11-20T05:56:10;6.00;99.90
9399;DHT22;4739;49.334;8.792;2022-11-20T05:58:37;5.90;99.90
9399;DHT22;4739;49.334;8.792;2022-11-20T06:03:31;6.00;99.90
9399;DHT22;4739;49.334;8.792;2022-11-20T06:05:59;6.00;99.90
9399;DHT22;4739;49.334;8.792;2022-11-20T06:08:24;6.10;99.90
9399;DHT22;4739;49.334;8.792;2022-11-20T06:10:50;6.10;99.90
9399;DHT22;4739;49.334;8.792;2022-11-20T06:13:15;6.10;99.90
9399;DHT22;4739;49.334;8.792;2022-11-20T06:15:41;6.10;99.90
9399;DHT22;4739;49.334;8.792;2022-11-20T06:18:06;6.10;99.90
9399;DHT22;4739;49.334;8.792;2022-11-20T06:20:32;6.10;99.90
9399;DHT22;4739;49.334;8.792;2022-11-20T06:22:57;6.10;99.90
9399;DHT22;4739;49.334;8.792;2022-11-20T06:25:23;6.10;99.90
9399;DHT22;4739;49.334;8.792;2022-11-20T06:27:48;6.10;99.90
9399;DHT22;4739;49.334;8.792;2022-11-20T06:30:14;6.20;99.90
9399;DHT22;4739;49.334;8.792;2022-11-20T06:32:40;6.20;99.90
9399;DHT22;4739;49.334;8.792;2022-11-20T06:35:06;6.20;99.90
9399;DHT22;4739;49.334;8.792;2022-11-20T06:37:31;6.20;99.90
9399;DHT22;4739;49.334;8.792;2022-11-20T06:39:57;6.20;99.90
9399;DHT22;4739;49.334;8.792;2022-11-20T06:42:23;6.10;99.90
9399;DHT22;4739;49.334;8.792;2022-11-20T06:44:49;6.10;99.90
9399;DHT22;4739;49.334;8.792;2022-11-20T06:47:15;6.10;99.90
9399;DHT22;4739;49.334;8.792;2022-11-20T06:49:40;6.10;99.90
9399;DHT22;4739;49.334;8.792;2022-11-20T06:52:06;6.20;99.90
9399;DHT22;4739;49.334;8.792;2022-11-20T06:54:31;6.20;99.90
9399;DHT22;4739;49.334;8.792;2022-11-20T06:56:57;6.20;99.90
9399;DHT22;4739;49.334;8.792;2022-11-20T06:59:23;6.20;99.90
9399;DHT22;4739;49.334;8.792;2022-11-20T07:01:48;6.20;99.90
9399;DHT22;4739;49.334;8.792;2022-11-20T07:04:14;6.20;99.90
9399;DHT22;4739;49.334;8.792;2022-11-20T07:06:40;6.30;99.90
9399;DHT22;4739;49.334;8.792;2022-11-20T07:09:05;6.40;99.90
9399;DHT22;4739;49.334;8.792;2022-11-20T07:11:31;6.40;99.90
9399;DHT22;4739;49.334;8.792;2022-11-20T07:13:57;6.50;99.90
9399;DHT22;4739;49.334;8.792;2022-11-20T07:16:22;6.60;99.90
9399;DHT22;4739;49.334;8.792;2022-11-20T07:18:48;6.60;99.90
9399;DHT22;4739;49.334;8.792;2022-11-20T07:21:14;6.60;99.90
9399;DHT22;4739;49.334;8.792;2022-11-20T07:23:39;6.70;99.90
9399;DHT22;4739;49.334;8.792;2022-11-20T07:26:10;6.70;99.90
9399;DHT22;4739;49.334;8.792;2022-11-20T07:28:36;6.60;99.90
9399;DHT22;4739;49.334;8.792;2022-11-20T07:31:02;6.60;99.90
9399;DHT22;4739;49.334;8.792;2022-11-20T07:33:29;6.60;99.90
9399;DHT22;4739;49.334;8.792;2022-11-20T07:35:54;6.60;99.90
9399;DHT22;4739;49.334;8.792;2022-11-20T07:38:20;6.70;99.90
9399;DHT22;4739;49.334;8.792;2022-11-20T07:40:46;6.70;99.90
9399;DHT22;4739;49.334;8.792;2022-11-20T07:43:11;6.80;99.90
9399;DHT22;4739;49.334;8.792;2022-11-20T07:45:37;6.80;99.90
9399;DHT22;4739;49.334;8.792;2022-11-20T07:48:03;6.80;99.90
9399;DHT22;4739;49.334;8.792;2022-11-20T07:50:29;6.80;99.90
9399;DHT22;4739;49.334;8.792;2022-11-20T07:53:02;6.80;99.90
9399;DHT22;4739;49.334;8.792;2022-11-20T07:55:28;6.80;99.90
9399;DHT22;4739;49.334;8.792;2022-11-20T07:57:56;6.90;99.90
9399;DHT22;4739;49.334;8.792;2022-11-20T08:00:23;6.90;99.90
9399;DHT22;4739;49.334;8.792;2022-11-20T08:02:48;6.90;99.90
9399;DHT22;4739;49.334;8.792;2022-11-20T08:05:14;7.00;99.90
9399;DHT22;4739;49.334;8.792;2022-11-20T08:07:41;7.00;99.90
9399;DHT22;4739;49.334;8.792;2022-11-20T08:10:09;7.00;99.90
9399;DHT22;4739;49.334;8.792;2022-11-20T08:12:35;7.00;99.90
9399;DHT22;4739;49.334;8.792;2022-11-20T08:15:19;7.10;99.90
9399;DHT22;4739;49.334;8.792;2022-11-20T08:17:44;7.10;99.90
9399;DHT22;4739;49.334;8.792;2022-11-20T08:20:10;7.20;99.90
9399;DHT22;4739;49.334;8.792;2022-11-20T08:22:36;7.30;99.90
9399;DHT22;4739;49.334;8.792;2022-11-20T08:25:01;7.30;99.90
9399;DHT22;4739;49.334;8.792;2022-11-20T08:27:27;7.30;99.90
9399;DHT22;4739;49.334;8.792;2022-11-20T08:29:53;7.30;99.90
9399;DHT22;4739;49.334;8.792;2022-11-20T08:32:18;7.30;99.90
9399;DHT22;4739;49.334;8.792;2022-11-20T08:34:45;7.30;99.90
9399;DHT22;4739;49.334;8.792;2022-11-20T08:37:11;7.40;99.90
9399;DHT22;4739;49.334;8.792;2022-11-20T08:39:37;7.40;99.90
9399;DHT22;4739;49.334;8.792;2022-11-20T08:42:07;7.50;99.90
9399;DHT22;4739;49.334;8.792;2022-11-20T08:44:32;7.40;99.90
9399;DHT22;4739;49.334;8.792;2022-11-20T08:46:58;7.40;99.90
9399;DHT22;4739;49.334;8.792;2022-11-20T08:49:23;7.50;99.90
9399;DHT22;4739;49.334;8.792;2022-11-20T08:51:49;7.50;99.90
9399;DHT22;4739;49.334;8.792;2022-11-20T08:54:17;7.60;99.90
9399;DHT22;4739;49.334;8.792;2022-11-20T08:56:45;7.70;99.90
9399;DHT22;4739;49.334;8.792;2022-11-20T08:59:10;7.70;99.90
9399;DHT22;4739;49.334;8.792;2022-11-20T09:01:36;7.70;99.90
9399;DHT22;4739;49.334;8.792;2022-11-20T09:04:01;7.70;99.90
9399;DHT22;4739;49.334;8.792;2022-11-20T09:06:29;7.70;99.90
9399;DHT22;4739;49.334;8.792;2022-11-20T09:08:54;7.70;99.90
9399;DHT22;4739;49.334;8.792;2022-11-20T09:11:21;7.70;99.90
9399;DHT22;4739;49.334;8.792;2022-11-20T09:13:46;7.80;99.90
9399;DHT22;4739;49.334;8.792;2022-11-20T09:16:12;7.70;99.90
9399;DHT22;4739;49.334;8.792;2022-11-20T09:18:37;7.70;99.90
9399;DHT22;4739;49.334;8.792;2022-11-20T09:21:06;7.70;99.90
9399;DHT22;4739;49.334;8.792;2022-11-20T09:23:33;7.70;99.90
9399;DHT22;4739;49.334;8.792;2022-11-20T09:26:08;7.70;99.90
9399;DHT22;4739;49.334;8.792;2022-11-20T09:28:34;7.70;99.90
9399;DHT22;4739;49.334;8.792;2022-11-20T09:31:00;7.80;99.90
9399;DHT22;4739;49.334;8.792;2022-11-20T09:33:26;7.70;99.90
9399;DHT22;4739;49.334;8.792;2022-11-20T09:35:52;7.80;99.90
9399;DHT22;4739;49.334;8.792;2022-11-20T09:38:20;7.70;99.90
9399;DHT22;4739;49.334;8.792;2022-11-20T09:41:02;7.80;99.90
9399;DHT22;4739;49.334;8.792;2022-11-20T09:44:04;7.80;99.90
9399;DHT22;4739;49.334;8.792;2022-11-20T09:46:33;8.00;99.90
9399;DHT22;4739;49.334;8.792;2022-11-20T09:52:12;8.10;99.90
9399;DHT22;4739;49.334;8.792;2022-11-20T09:54:43;8.00;99.90
9399;DHT22;4739;49.334;8.792;2022-11-20T09:57:16;8.10;99.90
9399;DHT22;4739;49.334;8.792;2022-11-20T09:59:46;8.20;99.90
9399;DHT22;4739;49.334;8.792;2022-11-20T10:02:27;8.10;99.90
9399;DHT22;4739;49.334;8.792;2022-11-20T10:05:18;8.20;99.90
9399;DHT22;4739;49.334;8.792;2022-11-20T10:07:53;8.10;99.90
9399;DHT22;4739;49.334;8.792;2022-11-20T10:10:40;8.10;99.90
9399;DHT22;4739;49.334;8.792;2022-11-20T10:18:37;8.10;99.90
9399;DHT22;4739;49.334;8.792;2022-11-20T10:26:49;8.00;99.90
9399;DHT22;4739;49.334;8.792;2022-11-20T10:29:19;8.10;99.90
9399;DHT22;4739;49.334;8.792;2022-11-20T10:32:02;8.10;99.90
9399;DHT22;4739;49.334;8.792;2022-11-20T10:37:05;8.20;99.90
9399;DHT22;4739;49.334;8.792;2022-11-20T10:42:45;8.20;99.90
9399;DHT22;4739;49.334;8.792;2022-11-20T10:47:49;8.20;99.90
9399;DHT22;4739;49.334;8.792;2022-11-20T10:50:19;8.20;99.90
9399;DHT22;4739;49.334;8.792;2022-11-20T11:01:29;8.50;99.90
9399;DHT22;4739;49.334;8.792;2022-11-20T11:03:55;8.70;99.90
9399;DHT22;4739;49.334;8.792;2022-11-20T11:06:31;8.70;99.90
9399;DHT22;4739;49.334;8.792;2022-11-20T11:09:04;8.80;99.90
9399;DHT22;4739;49.334;8.792;2022-11-20T11:11:34;8.90;99.90
9399;DHT22;4739;49.334;8.792;2022-11-20T11:14:07;8.90;99.90
9399;DHT22;4739;49.334;8.792;2022-11-20T11:16:33;8.90;99.90
9399;DHT22;4739;49.334;8.792;2022-11-20T11:19:14;8.90;99.90
9399;DHT22;4739;49.334;8.792;2022-11-20T11:21:53;8.90;99.90
9399;DHT22;4739;49.334;8.792;2022-11-20T11:24:27;8.80;99.90
9399;DHT22;4739;49.334;8.792;2022-11-20T11:27:10;9.00;99.90
9399;DHT22;4739;49.334;8.792;2022-11-20T11:29:36;9.20;99.90
9399;DHT22;4739;49.334;8.792;2022-11-20T11:32:12;9.30;99.90
9399;DHT22;4739;49.334;8.792;2022-11-20T11:37:15;9.70;99.90
9399;DHT22;4739;49.334;8.792;2022-11-20T11:39:43;9.50;99.90
9399;DHT22;4739;49.334;8.792;2022-11-20T11:42:14;9.60;99.90
9399;DHT22;4739;49.334;8.792;2022-11-20T11:44:44;9.60;99.90
9399;DHT22;4739;49.334;8.792;2022-11-20T11:55:44;9.50;99.90
9399;DHT22;4739;49.334;8.792;2022-11-20T12:00:51;9.50;99.90
9399;DHT22;4739;49.334;8.792;2022-11-20T12:03:24;9.50;99.90
9399;DHT22;4739;49.334;8.792;2022-11-20T12:05:57;9.50;99.90
9399;DHT22;4739;49.334;8.792;2022-11-20T12:08:59;9.50;99.90
9399;DHT22;4739;49.334;8.792;2022-11-20T12:11:54;9.50;99.90
9399;DHT22;4739;49.334;8.792;2022-11-20T12:14:37;9.60;99.90
9399;DHT22;4739;49.334;8.792;2022-11-20T12:17:03;9.60;99.90
9399;DHT22;4739;49.334;8.792;2022-11-20T12:19:33;9.70;99.90
9399;DHT22;4739;49.334;8.792;2022-11-20T12:22:07;9.70;99.90
9399;DHT22;4739;49.334;8.792;2022-11-20T12:30:19;10.10;99.90
9399;DHT22;4739;49.334;8.792;2022-11-20T12:44:52;9.80;99.90
9399;DHT22;4739;49.334;8.792;2022-11-20T12:47:59;9.70;99.90
9399;DHT22;4739;49.334;8.792;2022-11-20T12:50:49;9.70;99.90
9399;DHT22;4739;49.334;8.792;2022-11-20T13:01:48;9.70;99.90
9399;DHT22;4739;49.334;8.792;2022-11-20T13:05:04;9.70;99.90
9399;DHT22;4739;49.334;8.792;2022-11-20T13:07:33;9.60;99.90
9399;DHT22;4739;49.334;8.792;2022-11-20T13:10:00;9.70;99.90
9399;DHT22;4739;49.334;8.792;2022-11-20T13:12:44;9.70;99.90
9399;DHT22;4739;49.334;8.792;2022-11-20T13:17:58;9.70;99.90
9399;DHT22;4739;49.334;8.792;2022-11-20T13:20:24;9.60;99.90
9399;DHT22;4739;49.334;8.792;2022-11-20T13:22:54;9.60;99.90
9399;DHT22;4739;49.334;8.792;2022-11-20T13:25:34;9.60;99.90
9399;DHT22;4739;49.334;8.792;2022-11-20T13:30:35;9.50;99.90
9399;DHT22;4739;49.334;8.792;2022-11-20T13:33:08;9.50;99.90
9399;DHT22;4739;49.334;8.792;2022-11-20T13:35:41;9.50;99.90
9399;DHT22;4739;49.334;8.792;2022-11-20T13:38:10;9.50;99.90
9399;DHT22;4739;49.334;8.792;2022-11-20T13:41:00;9.50;99.90
9399;DHT22;4739;49.334;8.792;2022-11-20T13:43:42;9.60;99.90
9399;DHT22;4739;49.334;8.792;2022-11-20T13:46:09;9.70;99.90
9399;DHT22;4739;49.334;8.792;2022-11-20T13:48:43;9.70;99.90
9399;DHT22;4739;49.334;8.792;2022-11-20T13:54:45;9.60;99.90
9399;DHT22;4739;49.334;8.792;2022-11-20T14:00:18;9.50;99.90
9399;DHT22;4739;49.334;8.792;2022-11-20T14:03:41;9.50;99.90
9399;DHT22;4739;49.334;8.792;2022-11-20T14:06:02;9.60;99.90
9399;DHT22;4739;49.334;8.792;2022-11-20T14:08:39;9.50;99.90
9399;DHT22;4739;49.334;8.792;2022-11-20T14:11:20;9.50;99.90
9399;DHT22;4739;49.334;8.792;2022-11-20T14:16:28;9.50;99.90
9399;DHT22;4739;49.334;8.792;2022-11-20T14:18:55;9.60;99.90
9399;DHT22;4739;49.334;8.792;2022-11-20T14:21:29;9.60;99.90
9399;DHT22;4739;49.334;8.792;2022-11-20T14:24:10;9.50;99.90
9399;DHT22;4739;49.334;8.792;2022-11-20T14:26:38;9.40;99.90
9399;DHT22;4739;49.334;8.792;2022-11-20T14:29:16;9.30;99.90
9399;DHT22;4739;49.334;8.792;2022-11-20T14:31:43;9.20;99.90
9399;DHT22;4739;49.334;8.792;2022-11-20T14:37:00;9.20;99.90
9399;DHT22;4739;49.334;8.792;2022-11-20T14:39:37;9.20;99.90
9399;DHT22;4739;49.334;8.792;2022-11-20T14:42:17;8.80;99.90
9399;DHT22;4739;49.334;8.792;2022-11-20T14:44:43;8.70;99.90
9399;DHT22;4739;49.334;8.792;2022-11-20T14:47:12;8.60;99.90
9399;DHT22;4739;49.334;8.792;2022-11-20T14:49:38;8.60;99.90
9399;DHT22;4739;49.334;8.792;2022-11-20T14:52:15;8.40;99.90
9399;DHT22;4739;49.334;8.792;2022-11-20T14:54:45;8.30;99.90
9399;DHT22;4739;49.334;8.792;2022-11-20T14:59:46;8.20;99.90
9399;DHT22;4739;49.334;8.792;2022-11-20T15:02:12;8.20;99.90
9399;DHT22;4739;49.334;8.792;2022-11-20T15:04:56;8.20;99.90
9399;DHT22;4739;49.334;8.792;2022-11-20T15:07:50;8.20;99.90
9399;DHT22;4739;49.334;8.792;2022-11-20T15:10:20;8.20;99.90
9399;DHT22;4739;49.334;8.792;2022-11-20T15:13:34;8.10;99.90
9399;DHT22;4739;49.334;8.792;2022-11-20T15:15:49;8.00;99.90
9399;DHT22;4739;49.334;8.792;2022-11-20T15:18:20;7.90;99.90
9399;DHT22;4739;49.334;8.792;2022-11-20T15:20:47;7.90;99.90
9399;DHT22;4739;49.334;8.792;2022-11-20T15:23:15;7.70;99.90
9399;DHT22;4739;49.334;8.792;2022-11-20T15:25:43;7.60;99.90
9399;DHT22;4739;49.334;8.792;2022-11-20T15:28:18;7.60;99.90
9399;DHT22;4739;49.334;8.792;2022-11-20T15:30:46;7.60;99.90
9399;DHT22;4739;49.334;8.792;2022-11-20T15:33:11;7.60;99.90
9399;DHT22;4739;49.334;8.792;2022-11-20T15:35:38;7.50;99.90
9399;DHT22;4739;49.334;8.792;2022-11-20T15:38:03;7.50;99.90
9399;DHT22;4739;49.334;8.792;2022-11-20T15:40:29;7.40;99.90
9399;DHT22;4739;49.334;8.792;2022-11-20T15:42:54;7.40;99.90
9399;DHT22;4739;49.334;8.792;2022-11-20T15:45:49;7.30;99.90
9399;DHT22;4739;49.334;8.792;2022-11-20T15:48:20;7.20;99.90
9399;DHT22;4739;49.334;8.792;2022-11-20T15:51:02;7.20;99.90
9399;DHT22;4739;49.334;8.792;2022-11-20T15:53:29;7.20;99.90
9399;DHT22;4739;49.334;8.792;2022-11-20T15:55:54;7.20;99.90
9399;DHT22;4739;49.334;8.792;2022-11-20T15:58:20;7.20;99.90
9399;DHT22;4739;49.334;8.792;2022-11-20T16:00:48;7.10;99.90
9399;DHT22;4739;49.334;8.792;2022-11-20T16:03:14;7.10;99.90
9399;DHT22;4739;49.334;8.792;2022-11-20T16:05:40;7.10;99.90
9399;DHT22;4739;49.334;8.792;2022-11-20T16:08:06;7.10;99.90
9399;DHT22;4739;49.334;8.792;2022-11-20T16:10:32;7.10;99.90
9399;DHT22;4739;49.334;8.792;2022-11-20T16:12:58;7.10;99.90
9399;DHT22;4739;49.334;8.792;2022-11-20T16:15:44;7.00;99.90
9399;DHT22;4739;49.334;8.792;2022-11-20T16:18:20;7.00;99.90
9399;DHT22;4739;49.334;8.792;2022-11-20T16:20:53;7.00;99.90
9399;DHT22;4739;49.334;8.792;2022-11-20T16:23:19;7.00;99.90
9399;DHT22;4739;49.334;8.792;2022-11-20T16:25:46;7.00;99.90
9399;DHT22;4739;49.334;8.792;2022-11-20T16:28:12;7.00;99.90
9399;DHT22;4739;49.334;8.792;2022-11-20T16:30:38;6.90;99.90
9399;DHT22;4739;49.334;8.792;2022-11-20T16:33:04;6.90;99.90
9399;DHT22;4739;49.334;8.792;2022-11-20T16:35:30;7.00;99.90
9399;DHT22;4739;49.334;8.792;2022-11-20T16:37:57;7.00;99.90
9399;DHT22;4739;49.334;8.792;2022-11-20T16:40:24;7.00;99.90
9399;DHT22;4739;49.334;8.792;2022-11-20T16:42:50;7.00;99.90
9399;DHT22;4739;49.334;8.792;2022-11-20T16:45:16;7.00;99.90
9399;DHT22;4739;49.334;8.792;2022-11-20T16:47:42;6.90;99.90
9399;DHT22;4739;49.334;8.792;2022-11-20T16:50:08;6.90;99.90
9399;DHT22;4739;49.334;8.792;2022-11-20T16:52:34;7.00;99.90
9399;DHT22;4739;49.334;8.792;2022-11-20T16:55:00;7.00;99.90
9399;DHT22;4739;49.334;8.792;2022-11-20T16:57:30;7.00;99.90
9399;DHT22;4739;49.334;8.792;2022-11-20T16:59:58;7.00;99.90
9399;DHT22;4739;49.334;8.792;2022-11-20T17:02:23;6.90;99.90
9399;DHT22;4739;49.334;8.792;2022-11-20T17:04:50;6.90;99.90
9399;DHT22;4739;49.334;8.792;2022-11-20T17:07:16;6.90;99.90
9399;DHT22;4739;49.334;8.792;2022-11-20T17:09:42;6.90;99.90
9399;DHT22;4739;49.334;8.792;2022-11-20T17:12:07;6.90;99.90
9399;DHT22;4739;49.334;8.792;2022-11-20T17:14:33;6.90;99.90
9399;DHT22;4739;49.334;8.792;2022-11-20T17:16:59;6.90;99.90
9399;DHT22;4739;49.334;8.792;2022-11-20T17:19:24;6.90;99.90
9399;DHT22;4739;49.334;8.792;2022-11-20T17:21:50;6.90;99.90
9399;DHT22;4739;49.334;8.792;2022-11-20T17:24:15;6.90;99.90
9399;DHT22;4739;49.334;8.792;2022-11-20T17:26:42;6.90;99.90
9399;DHT22;4739;49.334;8.792;2022-11-20T17:29:13;7.00;99.90
9399;DHT22;4739;49.334;8.792;2022-11-20T17:31:40;7.00;99.90
9399;DHT22;4739;49.334;8.792;2022-11-20T17:34:07;7.00;99.90
9399;DHT22;4739;49.334;8.792;2022-11-20T17:36:35;7.00;99.90
9399;DHT22;4739;49.334;8.792;2022-11-20T17:39:01;7.10;99.90
9399;DHT22;4739;49.334;8.792;2022-11-20T17:41:28;7.00;99.90
9399;DHT22;4739;49.334;8.792;2022-11-20T17:43:56;7.00;99.90
9399;DHT22;4739;49.334;8.792;2022-11-20T17:46:30;7.00;99.90
9399;DHT22;4739;49.334;8.792;2022-11-20T17:48:59;7.10;99.90
9399;DHT22;4739;49.334;8.792;2022-11-20T17:51:27;7.10;99.90
9399;DHT22;4739;49.334;8.792;2022-11-20T17:53:56;7.10;99.90
9399;DHT22;4739;49.334;8.792;2022-11-20T17:56:22;7.00;99.90
9399;DHT22;4739;49.334;8.792;2022-11-20T17:59:08;7.00;99.90
9399;DHT22;4739;49.334;8.792;2022-11-20T18:01:34;7.00;99.90
9399;DHT22;4739;49.334;8.792;2022-11-20T18:04:00;7.00;99.90
9399;DHT22;4739;49.334;8.792;2022-11-20T18:06:28;7.00;99.90
9399;DHT22;4739;49.334;8.792;2022-11-20T18:08:54;7.10;99.90
9399;DHT22;4739;49.334;8.792;2022-11-20T18:11:26;7.10;99.90